Time;durP1;ratioP1;P1;durP2;ratioP2;P2;SDS_P1;SDS_P2;PMS_P1;PMS_P2;Temp;Humidity;BMP_temperature;BMP_pressure;BME280_temperature;BME280_humidity;BME280_pressure;Samples;Min_cycle;Max_cycle;Signal;HPM_P1;HPM_P2
2022/09/30 00:00:33;;;;;;;5.40;4.90;;;7.40;99.90;;;;;;5075645;28;20222;-85
2022/09/30 00:03:00;;;;;;;7.87;5.57;;;7.30;99.90;;;;;;5074838;28;20206;-85
2022/09/30 00:05:27;;;;;;;6.13;5.10;;;7.10;99.90;;;;;;5076129;28;20228;-85
2022/09/30 00:07:55;;;;;;;7.13;5.50;;;7.10;99.90;;;;;;5096728;28;20681;-85
2022/09/30 00:10:22;;;;;;;6.00;5.40;;;7.10;99.90;;;;;;5079950;28;20203;-84
2022/09/30 00:12:51;;;;;;;6.93;5.33;;;7.00;99.90;;;;;;5082057;28;20300;-85
2022/09/30 00:15:18;;;;;;;6.00;5.40;;;7.10;99.90;;;;;;5077217;28;20217;-85
2022/09/30 00:17:44;;;;;;;6.60;5.20;;;7.10;99.90;;;;;;5080976;28;20209;-85
2022/09/30 00:20:11;;;;;;;8.07;5.70;;;7.10;99.90;;;;;;5075987;28;20218;-84
2022/09/30 00:22:38;;;;;;;7.13;6.07;;;7.20;99.90;;;;;;5086581;28;20205;-84
2022/09/30 00:25:07;;;;;;;7.03;5.40;;;7.20;99.90;;;;;;5074650;28;20213;-84
2022/09/30 00:27:34;;;;;;;6.53;5.83;;;7.20;99.90;;;;;;5075463;28;20570;-85
2022/09/30 00:30:01;;;;;;;6.67;5.80;;;7.30;99.90;;;;;;5076455;28;20232;-85
2022/09/30 00:32:28;;;;;;;7.67;5.77;;;7.30;99.90;;;;;;5076166;28;20216;-84
2022/09/30 00:34:54;;;;;;;6.50;5.90;;;7.30;99.90;;;;;;5074697;28;20212;-85
2022/09/30 00:37:21;;;;;;;7.27;5.80;;;7.20;99.90;;;;;;5076023;28;20222;-84
2022/09/30 00:39:48;;;;;;;6.50;5.30;;;7.20;99.90;;;;;;5075028;28;20696;-85
2022/09/30 00:42:18;;;;;;;7.17;6.47;;;7.00;99.90;;;;;;5075291;28;20217;-85
2022/09/30 00:44:51;;;;;;;7.27;5.50;;;6.80;99.90;;;;;;5074566;28;20558;-85
2022/09/30 00:47:39;;;;;;;8.03;6.57;;;6.90;99.90;;;;;;5055997;28;20227;-85
2022/09/30 00:50:16;;;;;;;7.10;6.00;;;7.00;99.90;;;;;;5055294;28;20278;-85
2022/09/30 00:52:46;;;;;;;8.43;6.27;;;7.20;99.90;;;;;;5059054;28;20179;-85
2022/09/30 00:55:25;;;;;;;8.90;6.03;;;7.20;99.90;;;;;;5073948;28;20207;-85
2022/09/30 00:57:55;;;;;;;6.37;5.70;;;7.30;99.90;;;;;;5054711;28;20198;-85
2022/09/30 01:00:21;;;;;;;7.60;5.70;;;7.50;99.90;;;;;;5062677;28;20222;-85
2022/09/30 01:02:49;;;;;;;8.60;6.23;;;7.30;99.90;;;;;;5066516;28;20198;-85
2022/09/30 01:05:16;;;;;;;7.50;5.87;;;7.20;99.90;;;;;;5073459;28;20843;-85
2022/09/30 01:07:43;;;;;;;8.87;5.73;;;7.20;99.90;;;;;;5075072;28;20550;-85
2022/09/30 01:10:10;;;;;;;7.07;5.83;;;7.10;99.90;;;;;;5074832;28;20623;-85
2022/09/30 01:12:37;;;;;;;7.53;5.80;;;7.00;99.90;;;;;;5075217;28;20207;-85
2022/09/30 01:15:06;;;;;;;7.47;6.07;;;6.90;99.90;;;;;;5074232;28;20204;-85
2022/09/30 01:17:42;;;;;;;7.43;6.40;;;6.90;99.90;;;;;;5074866;28;20642;-84
2022/09/30 01:20:51;;;;;;;7.13;5.80;;;6.90;99.90;;;;;;5074040;28;20411;-84
2022/09/30 01:23:59;;;;;;;7.40;6.07;;;6.80;99.90;;;;;;5052971;28;20203;-85
2022/09/30 01:26:47;;;;;;;6.70;5.77;;;6.70;99.90;;;;;;5045377;28;20632;-85
2022/09/30 01:29:49;;;;;;;6.30;5.63;;;6.60;99.90;;;;;;5073696;28;20195;-85
2022/09/30 01:32:27;;;;;;;6.17;5.57;;;6.60;99.90;;;;;;5072981;28;20639;-85
2022/09/30 01:35:06;;;;;;;6.93;5.77;;;6.60;99.90;;;;;;5073212;28;20216;-85
2022/09/30 01:37:49;;;;;;;6.73;5.87;;;6.40;99.90;;;;;;5074845;28;20222;-84
2022/09/30 01:40:22;;;;;;;7.63;5.87;;;6.20;99.90;;;;;;5073475;28;20252;-84
2022/09/30 01:42:58;;;;;;;8.53;5.83;;;6.30;99.90;;;;;;5074699;28;20206;-84
2022/09/30 01:45:33;;;;;;;6.80;6.07;;;6.40;99.90;;;;;;5074262;28;20750;-85
2022/09/30 01:48:06;;;;;;;9.53;6.47;;;6.30;99.90;;;;;;5071019;28;20218;-85
2022/09/30 01:50:42;;;;;;;9.10;7.27;;;6.30;99.90;;;;;;5075009;28;20277;-84
2022/09/30 01:53:18;;;;;;;6.97;6.00;;;6.30;99.90;;;;;;5074014;28;20674;-84
2022/09/30 01:55:50;;;;;;;7.87;6.03;;;6.30;99.90;;;;;;5074931;28;20229;-84
2022/09/30 01:58:25;;;;;;;7.83;5.90;;;6.30;99.90;;;;;;5073613;28;20293;-84
2022/09/30 02:00:57;;;;;;;7.10;6.00;;;6.40;99.90;;;;;;5072133;28;20300;-84
2022/09/30 02:03:31;;;;;;;6.67;5.77;;;6.30;99.90;;;;;;5053307;28;20190;-85
2022/09/30 02:06:03;;;;;;;5.53;5.00;;;6.30;99.90;;;;;;5069263;28;20245;-84
2022/09/30 02:08:35;;;;;;;5.70;5.20;;;6.20;99.90;;;;;;5073552;28;20212;-85
2022/09/30 02:11:08;;;;;;;5.47;4.97;;;5.80;99.90;;;;;;5073007;28;20266;-84
2022/09/30 02:13:41;;;;;;;7.43;5.90;;;5.70;99.90;;;;;;5053585;28;20667;-85
2022/09/30 02:16:16;;;;;;;6.67;5.87;;;5.60;99.90;;;;;;5064648;28;20214;-84
2022/09/30 02:18:50;;;;;;;6.80;5.80;;;5.40;99.90;;;;;;5083241;28;20230;-85
2022/09/30 02:21:21;;;;;;;7.20;5.60;;;5.70;99.90;;;;;;5073638;28;20225;-85
2022/09/30 02:23:52;;;;;;;7.03;5.77;;;5.80;99.90;;;;;;5064730;28;20197;-84
2022/09/30 02:26:24;;;;;;;6.27;5.63;;;5.90;99.90;;;;;;5072989;28;20233;-84
2022/09/30 02:28:56;;;;;;;7.97;5.20;;;5.90;99.90;;;;;;5073181;28;20210;-85
2022/09/30 02:31:26;;;;;;;7.43;5.67;;;5.90;99.90;;;;;;5072384;28;20685;-84
2022/09/30 02:33:59;;;;;;;6.80;5.70;;;5.90;99.90;;;;;;5073528;28;20544;-84
2022/09/30 02:36:29;;;;;;;6.57;5.43;;;6.10;99.90;;;;;;5073184;28;20215;-84
2022/09/30 02:39:02;;;;;;;8.00;5.83;;;6.00;99.90;;;;;;5073064;28;20206;-85
2022/09/30 02:41:33;;;;;;;7.87;5.70;;;5.90;99.90;;;;;;5072045;28;20257;-85
2022/09/30 02:44:01;;;;;;;7.03;5.63;;;5.80;99.90;;;;;;5073393;28;20264;-85
2022/09/30 02:46:40;;;;;;;8.50;5.80;;;6.00;99.90;;;;;;5071726;28;20229;-84
2022/09/30 02:49:17;;;;;;;6.87;5.83;;;6.00;99.90;;;;;;5073788;28;20666;-84
2022/09/30 02:51:58;;;;;;;6.77;5.87;;;5.90;99.90;;;;;;5071471;28;20204;-85
2022/09/30 02:54:34;;;;;;;7.00;5.90;;;5.80;99.90;;;;;;5072432;28;20199;-84
2022/09/30 02:57:13;;;;;;;7.57;5.93;;;5.80;99.90;;;;;;5073767;28;20297;-85
2022/09/30 02:59:40;;;;;;;9.13;6.17;;;5.70;99.90;;;;;;5075171;28;20672;-85
2022/09/30 03:02:07;;;;;;;7.20;6.30;;;5.80;99.90;;;;;;5073338;28;20263;-85
2022/09/30 03:04:40;;;;;;;8.33;6.10;;;5.70;99.90;;;;;;5073691;28;20206;-84
2022/09/30 03:07:07;;;;;;;9.60;6.70;;;5.60;99.90;;;;;;5073779;28;20230;-84
2022/09/30 03:09:35;;;;;;;7.07;5.97;;;5.50;99.90;;;;;;5073668;28;20669;-84
2022/09/30 03:12:11;;;;;;;7.97;7.10;;;5.60;99.90;;;;;;5073164;28;20217;-85
2022/09/30 03:14:56;;;;;;;8.60;6.80;;;5.80;99.90;;;;;;5073735;28;20175;-85
2022/09/30 03:17:41;;;;;;;8.37;7.27;;;5.90;99.90;;;;;;5073656;28;20668;-84
2022/09/30 03:20:33;;;;;;;7.50;6.50;;;5.90;99.90;;;;;;5073119;28;20207;-84
2022/09/30 03:23:35;;;;;;;8.50;6.60;;;5.90;99.90;;;;;;5077089;28;20198;-85
2022/09/30 03:26:15;;;;;;;8.90;7.50;;;5.80;99.90;;;;;;5075582;28;20221;-84
2022/09/30 03:28:50;;;;;;;15.40;10.83;;;5.90;99.90;;;;;;5077644;28;20275;-84
2022/09/30 03:31:25;;;;;;;13.83;9.97;;;6.00;99.90;;;;;;5076861;28;20209;-84
2022/09/30 03:33:55;;;;;;;8.93;8.00;;;5.90;99.90;;;;;;5076974;28;20654;-82
2022/09/30 03:36:31;;;;;;;9.43;7.43;;;5.80;99.90;;;;;;5077803;28;20230;-82
2022/09/30 03:39:03;;;;;;;8.47;6.90;;;5.60;99.90;;;;;;5077731;28;20198;-83
2022/09/30 03:41:38;;;;;;;10.90;8.27;;;5.50;99.90;;;;;;5077583;28;20237;-82
2022/09/30 03:44:11;;;;;;;8.83;7.27;;;5.60;99.90;;;;;;5078036;28;20190;-82
2022/09/30 03:46:42;;;;;;;9.70;7.13;;;5.60;99.90;;;;;;5077749;28;20218;-82
2022/09/30 03:49:12;;;;;;;9.73;7.43;;;5.70;99.90;;;;;;5077560;28;20868;-82
2022/09/30 03:51:41;;;;;;;10.10;7.43;;;5.70;99.90;;;;;;5077368;28;20198;-83
2022/09/30 03:54:10;;;;;;;11.77;7.70;;;5.90;99.90;;;;;;5077707;28;20659;-82
2022/09/30 03:56:40;;;;;;;10.90;7.93;;;5.80;99.90;;;;;;5077366;28;20230;-83
2022/09/30 03:59:10;;;;;;;10.10;7.57;;;5.70;99.90;;;;;;5076487;28;20195;-82
2022/09/30 04:01:38;;;;;;;11.33;8.80;;;5.70;99.90;;;;;;5076676;28;20222;-82
2022/09/30 04:04:05;;;;;;;10.87;7.63;;;5.80;99.90;;;;;;5077053;28;20213;-82
2022/09/30 04:06:31;;;;;;;11.63;7.73;;;5.70;99.90;;;;;;5076559;28;20222;-85
2022/09/30 04:09:00;;;;;;;11.00;8.47;;;5.80;99.90;;;;;;5076328;28;20206;-82
2022/09/30 04:11:26;;;;;;;9.17;7.77;;;5.70;99.90;;;;;;5077147;28;20260;-82
2022/09/30 04:13:53;;;;;;;12.00;8.20;;;5.70;99.90;;;;;;5076321;28;20194;-81
2022/09/30 04:16:20;;;;;;;9.97;7.83;;;5.60;99.90;;;;;;5076386;28;20230;-83
2022/09/30 04:18:47;;;;;;;8.63;7.73;;;5.50;99.90;;;;;;5076714;28;20218;-82
2022/09/30 04:21:15;;;;;;;10.43;8.23;;;5.50;99.90;;;;;;5076786;28;20218;-81
2022/09/30 04:23:43;;;;;;;9.87;6.90;;;5.50;99.90;;;;;;5076697;28;20208;-82
2022/09/30 04:26:13;;;;;;;10.50;7.77;;;4.90;99.90;;;;;;5077676;28;20224;-82
2022/09/30 04:28:40;;;;;;;8.50;7.00;;;4.70;99.90;;;;;;5075812;28;20206;-83
2022/09/30 04:31:07;;;;;;;9.90;7.70;;;5.00;99.90;;;;;;5076631;28;20224;-83
2022/09/30 04:33:34;;;;;;;9.17;7.80;;;5.10;99.90;;;;;;5076495;28;20209;-83
2022/09/30 04:36:02;;;;;;;10.13;8.33;;;5.10;99.90;;;;;;5090443;28;20229;-83
2022/09/30 04:38:29;;;;;;;11.90;8.50;;;5.30;99.90;;;;;;5077342;28;20224;-83
2022/09/30 04:40:57;;;;;;;13.60;8.57;;;5.30;99.90;;;;;;5075667;28;20230;-83
2022/09/30 04:43:26;;;;;;;12.40;8.70;;;5.20;99.90;;;;;;5075856;28;20556;-83
2022/09/30 04:45:53;;;;;;;12.13;8.67;;;5.20;99.90;;;;;;5074619;28;20249;-83
2022/09/30 04:48:21;;;;;;;14.53;9.47;;;5.30;99.90;;;;;;5073161;28;20195;-83
2022/09/30 04:50:49;;;;;;;12.53;9.10;;;5.40;99.90;;;;;;5075583;28;20214;-83
2022/09/30 04:53:16;;;;;;;11.70;8.77;;;5.40;99.90;;;;;;5075737;28;20199;-83
2022/09/30 04:55:43;;;;;;;8.97;6.57;;;5.30;99.90;;;;;;5074518;28;20230;-83
2022/09/30 04:58:11;;;;;;;7.17;6.43;;;4.70;99.90;;;;;;5075811;28;20210;-83
2022/09/30 05:00:39;;;;;;;9.53;7.53;;;4.60;99.90;;;;;;5075322;28;20718;-83
2022/09/30 05:03:06;;;;;;;10.83;8.27;;;4.80;99.90;;;;;;5074814;28;20257;-83
2022/09/30 05:05:33;;;;;;;11.87;9.33;;;5.00;99.90;;;;;;5075539;28;20222;-83
2022/09/30 05:08:01;;;;;;;12.70;9.10;;;5.20;99.90;;;;;;5075135;28;20205;-83
2022/09/30 05:10:28;;;;;;;10.57;8.10;;;5.10;99.90;;;;;;5075917;28;20569;-83
2022/09/30 05:12:56;;;;;;;15.20;10.17;;;5.20;99.90;;;;;;5074365;28;20206;-83
2022/09/30 05:15:23;;;;;;;9.60;7.60;;;5.20;99.90;;;;;;5074912;28;20206;-83
2022/09/30 05:17:51;;;;;;;10.97;7.50;;;4.80;99.90;;;;;;5074327;28;20225;-83
2022/09/30 05:20:19;;;;;;;13.30;8.63;;;4.60;99.90;;;;;;5073665;28;20579;-82
2022/09/30 05:22:46;;;;;;;10.33;7.80;;;4.60;99.90;;;;;;5075991;28;20224;-82
2022/09/30 05:25:13;;;;;;;10.50;8.50;;;4.50;99.90;;;;;;5075051;28;20296;-83
2022/09/30 05:27:39;;;;;;;10.33;8.43;;;4.70;99.90;;;;;;5074459;28;20232;-83
2022/09/30 05:30:08;;;;;;;11.93;8.37;;;4.90;99.90;;;;;;5075784;28;20202;-83
2022/09/30 05:32:34;;;;;;;11.37;8.33;;;4.80;99.90;;;;;;5074346;28;20241;-83
2022/09/30 05:35:03;;;;;;;13.47;8.67;;;4.80;99.90;;;;;;5073903;28;20637;-83
2022/09/30 05:37:30;;;;;;;11.20;8.60;;;4.90;99.90;;;;;;5074931;28;20222;-83
2022/09/30 05:39:58;;;;;;;11.67;7.87;;;5.00;99.90;;;;;;5075055;28;20198;-82
2022/09/30 05:42:25;;;;;;;10.40;7.90;;;4.80;99.90;;;;;;5074669;28;20233;-83
2022/09/30 05:44:51;;;;;;;10.73;8.67;;;4.70;99.90;;;;;;5073638;28;20650;-83
2022/09/30 05:47:18;;;;;;;10.70;7.77;;;4.90;99.90;;;;;;5074494;28;20226;-83
2022/09/30 05:49:45;;;;;;;10.20;8.03;;;4.80;99.90;;;;;;5073915;28;20206;-83
2022/09/30 05:52:13;;;;;;;8.97;6.90;;;4.80;99.90;;;;;;5074850;28;20198;-83
2022/09/30 05:54:41;;;;;;;9.93;7.87;;;4.90;99.90;;;;;;5076588;28;20284;-83
2022/09/30 05:57:08;;;;;;;10.57;6.93;;;4.60;99.90;;;;;;5075609;28;20222;-83
2022/09/30 05:59:36;;;;;;;11.87;8.13;;;4.80;99.90;;;;;;5073876;28;20210;-82
2022/09/30 06:02:03;;;;;;;11.67;8.97;;;4.90;99.90;;;;;;5075195;28;20225;-83
2022/09/30 06:04:30;;;;;;;15.13;9.80;;;5.00;99.90;;;;;;5075402;28;20194;-83
2022/09/30 06:06:57;;;;;;;13.73;9.17;;;5.00;99.90;;;;;;5074576;28;20602;-83
2022/09/30 06:09:25;;;;;;;12.90;8.60;;;5.10;99.90;;;;;;5075784;28;20585;-83
2022/09/30 06:11:57;;;;;;;13.53;9.57;;;5.20;99.90;;;;;;5075694;28;20195;-82
2022/09/30 06:14:24;;;;;;;10.93;8.90;;;5.20;99.90;;;;;;5074418;28;20200;-83
2022/09/30 06:16:51;;;;;;;11.80;8.80;;;5.40;99.90;;;;;;5074924;28;20237;-83
2022/09/30 06:19:18;;;;;;;12.23;9.13;;;5.40;99.90;;;;;;5074223;28;20728;-83
2022/09/30 06:21:45;;;;;;;10.80;8.87;;;5.30;99.90;;;;;;5073843;28;20229;-83
2022/09/30 06:24:13;;;;;;;15.90;10.67;;;5.40;99.90;;;;;;5072940;28;20651;-83
2022/09/30 06:26:42;;;;;;;12.47;9.07;;;5.50;99.90;;;;;;5074538;28;20222;-83
2022/09/30 06:29:09;;;;;;;12.90;9.53;;;5.60;99.90;;;;;;5074800;28;20206;-83
2022/09/30 06:31:35;;;;;;;13.17;9.60;;;5.70;99.90;;;;;;5073942;28;20581;-83
2022/09/30 06:34:03;;;;;;;12.80;9.50;;;5.80;99.90;;;;;;5073354;28;20706;-83
2022/09/30 06:36:31;;;;;;;14.70;9.33;;;5.80;99.90;;;;;;5074387;28;20237;-83
2022/09/30 06:38:58;;;;;;;12.10;9.33;;;5.80;99.90;;;;;;5074893;28;20206;-83
2022/09/30 06:41:26;;;;;;;11.53;9.53;;;5.90;99.90;;;;;;5074315;28;20198;-82
2022/09/30 06:43:54;;;;;;;11.83;9.23;;;5.90;99.90;;;;;;5074684;28;20222;-83
2022/09/30 06:46:22;;;;;;;12.30;9.50;;;6.00;99.90;;;;;;5073359;28;20230;-83
2022/09/30 06:48:51;;;;;;;14.53;10.13;;;6.10;99.90;;;;;;5074133;28;20252;-83
2022/09/30 06:51:19;;;;;;;13.77;9.40;;;6.20;99.90;;;;;;5073257;28;20274;-83
2022/09/30 06:53:46;;;;;;;14.33;9.73;;;6.30;99.90;;;;;;5074043;28;20210;-83
2022/09/30 06:56:13;;;;;;;13.27;9.90;;;6.50;99.90;;;;;;5075854;28;20226;-83
2022/09/30 06:58:41;;;;;;;14.07;10.93;;;6.60;99.90;;;;;;5077348;28;20557;-82
2022/09/30 07:01:12;;;;;;;16.27;9.90;;;6.70;99.90;;;;;;5077715;28;20210;-83
2022/09/30 07:03:39;;;;;;;16.23;11.37;;;6.70;99.90;;;;;;5078196;28;20306;-83
2022/09/30 07:06:06;;;;;;;15.43;11.10;;;6.80;99.90;;;;;;5077404;28;20222;-83
2022/09/30 07:08:35;;;;;;;17.57;11.73;;;6.80;99.90;;;;;;5077158;28;20202;-82
2022/09/30 07:11:04;;;;;;;16.70;10.43;;;7.00;99.90;;;;;;5077670;28;20576;-83
2022/09/30 07:13:31;;;;;;;15.90;11.73;;;7.30;99.90;;;;;;5076165;28;20262;-83
2022/09/30 07:15:58;;;;;;;16.27;10.40;;;7.40;99.90;;;;;;5076993;28;20232;-83
2022/09/30 07:18:27;;;;;;;17.00;10.90;;;7.50;99.90;;;;;;5077604;28;20209;-83
2022/09/30 07:20:55;;;;;;;15.20;11.70;;;7.70;99.90;;;;;;5077979;28;20198;-83
2022/09/30 07:23:24;;;;;;;16.13;12.17;;;7.60;99.90;;;;;;5076993;28;20227;-83
2022/09/30 07:25:53;;;;;;;15.67;11.43;;;7.70;99.90;;;;;;5077423;28;20589;-82
2022/09/30 07:28:21;;;;;;;17.03;11.50;;;7.90;99.90;;;;;;5076462;28;20237;-83
2022/09/30 07:30:47;;;;;;;19.13;11.87;;;8.50;99.90;;;;;;5075908;28;20209;-83
2022/09/30 07:33:15;;;;;;;20.60;11.67;;;10.40;99.90;;;;;;5077070;28;20214;-83
2022/09/30 07:35:50;;;;;;;14.53;9.70;;;11.50;99.90;;;;;;5077578;28;20709;-83
2022/09/30 07:38:18;;;;;;;12.30;9.17;;;11.50;99.90;;;;;;5077376;28;20723;-84
2022/09/30 07:40:53;;;;;;;12.37;8.30;;;10.50;99.90;;;;;;5077537;28;20287;-83
2022/09/30 07:43:20;;;;;;;15.70;9.60;;;10.10;99.90;;;;;;5076101;28;20218;-83
2022/09/30 07:45:48;;;;;;;13.83;9.10;;;9.70;99.90;;;;;;5077320;28;20664;-83
2022/09/30 07:50:57;;;;;;;13.17;9.13;;;9.60;99.90;;;;;;5076935;28;20285;-83
2022/09/30 07:53:24;;;;;;;12.27;9.13;;;9.70;99.90;;;;;;5077610;28;20230;-83
2022/09/30 07:55:51;;;;;;;16.00;9.80;;;9.80;99.90;;;;;;5077214;28;20690;-83
2022/09/30 07:58:18;;;;;;;14.30;9.73;;;9.70;99.90;;;;;;5077197;28;20202;-83
2022/09/30 08:00:49;;;;;;;13.70;9.40;;;9.80;99.90;;;;;;5077526;28;20202;-83
2022/09/30 08:03:15;;;;;;;13.97;9.40;;;9.80;99.90;;;;;;5076272;28;20214;-83
2022/09/30 08:05:44;;;;;;;13.80;9.77;;;9.80;99.90;;;;;;5076913;28;20214;-83
2022/09/30 08:08:13;;;;;;;14.87;9.67;;;9.90;99.90;;;;;;5075578;28;20202;-83
2022/09/30 08:10:39;;;;;;;14.50;10.33;;;9.90;99.90;;;;;;5077145;28;20202;-83
2022/09/30 08:13:06;;;;;;;16.73;11.23;;;10.00;99.90;;;;;;5077113;28;20198;-83
2022/09/30 08:15:33;;;;;;;14.83;9.87;;;10.00;99.90;;;;;;5076480;28;20214;-83
2022/09/30 08:18:00;;;;;;;15.87;10.50;;;10.30;99.90;;;;;;5077797;28;20190;-83
2022/09/30 08:20:27;;;;;;;13.87;10.27;;;10.40;99.90;;;;;;5076472;28;20210;-83
2022/09/30 08:22:54;;;;;;;14.60;10.30;;;10.50;99.90;;;;;;5075633;28;20218;-84
2022/09/30 08:25:23;;;;;;;16.93;10.70;;;10.60;99.90;;;;;;5076005;28;20284;-83
2022/09/30 08:27:50;;;;;;;16.77;10.63;;;10.70;99.90;;;;;;5076425;28;20195;-83
2022/09/30 08:30:17;;;;;;;18.93;11.00;;;11.00;99.90;;;;;;5075652;28;20569;-83
2022/09/30 08:32:44;;;;;;;17.30;10.87;;;10.90;99.90;;;;;;5076366;28;20179;-83
2022/09/30 08:35:11;;;;;;;12.97;9.97;;;11.00;99.90;;;;;;5075878;28;20214;-83
2022/09/30 08:37:38;;;;;;;14.13;10.73;;;11.10;99.90;;;;;;5076327;28;20560;-83
2022/09/30 08:40:05;;;;;;;14.60;9.67;;;11.20;99.90;;;;;;5075404;28;20206;-83
2022/09/30 08:42:49;;;;;;;11.93;8.93;;;11.20;99.90;;;;;;5077051;28;20694;-83
2022/09/30 08:45:26;;;;;;;14.13;9.53;;;11.30;99.90;;;;;;5075151;28;20710;-83
2022/09/30 08:48:02;;;;;;;13.10;9.33;;;11.30;99.90;;;;;;5076001;28;20197;-83
2022/09/30 08:50:40;;;;;;;14.63;9.33;;;11.60;99.90;;;;;;5076002;28;20189;-83
2022/09/30 08:53:13;;;;;;;15.03;10.63;;;11.70;1.00;;;;;;5074734;28;20201;-83
2022/09/30 08:55:42;;;;;;;13.50;10.17;;;11.80;1.00;;;;;;5076645;28;20229;-83
2022/09/30 08:58:19;;;;;;;13.37;9.60;;;11.90;1.00;;;;;;5076273;28;20211;-83
2022/09/30 09:00:46;;;;;;;12.40;9.53;;;12.00;28.00;;;;;;5076569;28;20186;-83
2022/09/30 09:03:14;;;;;;;11.03;8.50;;;12.10;1.00;;;;;;5076078;28;20264;-83
2022/09/30 09:05:54;;;;;;;12.77;9.57;;;12.40;1.00;;;;;;5076643;28;20218;-83
2022/09/30 09:08:29;;;;;;;14.33;9.53;;;12.50;1.00;;;;;;5076454;28;20186;-83
2022/09/30 09:11:04;;;;;;;15.80;10.40;;;12.50;1.00;;;;;;5076311;28;20210;-83
2022/09/30 09:13:43;;;;;;;16.23;10.57;;;13.00;1.00;;;;;;5076248;28;20194;-83
2022/09/30 09:16:17;;;;;;;14.90;9.60;;;13.40;1.00;;;;;;5075735;28;20218;-83
2022/09/30 09:18:58;;;;;;;13.30;9.57;;;13.70;1.00;;;;;;5076155;28;20191;-83
2022/09/30 09:21:38;;;;;;;12.77;9.53;;;14.00;1.00;;;;;;5075712;28;20183;-83
2022/09/30 09:24:12;;;;;;;12.87;9.90;;;14.20;99.90;;;;;;5075668;28;20206;-83
2022/09/30 09:26:39;;;;;;;13.33;9.30;;;14.40;1.00;;;;;;5075383;28;20686;-83
2022/09/30 09:29:20;;;;;;;12.47;8.80;;;14.50;1.00;;;;;;5075785;28;20220;-83
2022/09/30 09:31:48;;;;;;;15.40;9.93;;;14.40;1.00;;;;;;5075476;28;20213;-84
2022/09/30 09:34:15;;;;;;;12.63;9.27;;;14.60;1.00;;;;;;5075481;28;20202;-84
2022/09/30 09:36:56;;;;;;;12.10;9.27;;;14.80;1.00;;;;;;5075369;28;20275;-84
2022/09/30 09:39:44;;;;;;;12.83;9.27;;;15.00;1.00;;;;;;5075637;28;20198;-84
2022/09/30 09:42:27;;;;;;;11.87;8.70;;;15.20;1.00;;;;;;5075303;28;20224;-84
2022/09/30 09:45:00;;;;;;;10.60;8.70;;;15.30;1.00;;;;;;5075812;28;20698;-84
2022/09/30 09:47:27;;;;;;;10.53;8.37;;;15.20;99.90;;;;;;5075101;28;20222;-84
2022/09/30 09:49:58;;;;;;;12.63;8.40;;;15.60;99.90;;;;;;5075223;28;20213;-84
2022/09/30 09:52:44;;;;;;;11.57;8.30;;;15.50;1.00;;;;;;5075184;28;20602;-83
2022/09/30 09:55:12;;;;;;;9.67;7.93;;;15.50;1.00;;;;;;5074970;28;20271;-84
2022/09/30 09:57:40;;;;;;;10.57;8.45;;;16.20;1.00;;;;;;5075202;28;20209;-84
2022/09/30 10:03:03;;;;;;;10.35;8.55;;;16.00;1.00;;;;;;5075000;28;20279;-84
2022/09/30 10:05:38;;;;;;;11.93;7.95;;;16.20;1.00;;;;;;5076422;28;20272;-85
2022/09/30 10:08:15;;;;;;;10.60;8.13;;;16.40;99.90;;;;;;5078762;28;20277;-84
2022/09/30 10:10:46;;;;;;;12.68;8.48;;;16.50;1.00;;;;;;5076288;28;20210;-82
2022/09/30 10:13:18;;;;;;;10.30;8.30;;;16.60;1.00;;;;;;5075242;28;20236;-82
2022/09/30 10:15:47;;;;;;;9.77;7.30;;;16.60;1.00;;;;;;5074537;28;20210;-82
2022/09/30 10:18:20;;;;;;;9.48;8.30;;;16.80;1.00;;;;;;5075385;28;20213;-82
2022/09/30 10:20:53;;;;;;;10.07;7.90;;;16.90;1.00;;;;;;5075386;28;20186;-82
2022/09/30 10:23:25;;;;;;;12.05;8.55;;;16.70;99.90;;;;;;5074719;28;20226;-83
2022/09/30 10:25:58;;;;;;;9.77;8.18;;;17.10;1.00;;;;;;5070058;28;20245;-82
2022/09/30 10:28:27;;;;;;;9.25;6.95;;;16.80;99.90;;;;;;5069835;28;20210;-82
2022/09/30 10:31:05;;;;;;;7.70;6.95;;;17.00;99.90;;;;;;5074706;28;20605;-82
2022/09/30 10:33:41;;;;;;;8.32;6.95;;;17.20;99.90;;;;;;5076827;28;20188;-82
2022/09/30 10:36:12;;;;;;;9.57;6.60;;;16.90;1.00;;;;;;5078454;28;20229;-82
2022/09/30 10:38:49;;;;;;;8.10;6.50;;;16.90;1.00;;;;;;5078758;28;20193;-82
2022/09/30 10:41:23;;;;;;;7.47;6.07;;;17.00;1.00;;;;;;5078033;28;20187;-83
2022/09/30 10:43:54;;;;;;;8.38;6.25;;;17.30;99.90;;;;;;5076955;28;20198;-82
2022/09/30 10:46:27;;;;;;;8.65;6.45;;;17.30;1.00;;;;;;5078447;28;20233;-82
2022/09/30 10:48:56;;;;;;;10.38;6.70;;;17.10;1.00;;;;;;5074332;28;20866;-82
2022/09/30 10:51:26;;;;;;;11.13;7.53;;;17.00;1.00;;;;;;5097857;28;20232;-81
2022/09/30 10:53:54;;;;;;;9.50;6.72;;;17.40;1.00;;;;;;5098234;28;20263;-82
2022/09/30 10:56:37;;;;;;;10.55;6.57;;;17.50;1.00;;;;;;5090071;28;20232;-83
2022/09/30 10:59:06;;;;;;;8.73;7.28;;;17.70;1.00;;;;;;5058232;28;20213;-83
2022/09/30 11:01:40;;;;;;;10.23;6.85;;;17.60;1.00;;;;;;5067307;28;20203;-83
2022/09/30 11:04:14;;;;;;;9.75;7.60;;;17.40;1.00;;;;;;5077897;28;20230;-82
2022/09/30 11:06:45;;;;;;;10.82;7.80;;;17.60;1.00;;;;;;5076950;28;20687;-83
2022/09/30 11:09:18;;;;;;;12.80;9.70;;;17.50;1.00;;;;;;5076104;28;20189;-82
2022/09/30 11:11:49;;;;;;;11.32;8.70;;;17.50;1.00;;;;;;5077396;28;20554;-83
2022/09/30 11:14:29;;;;;;;12.65;8.95;;;17.80;1.00;;;;;;5076865;28;20221;-82
2022/09/30 11:17:05;;;;;;;13.18;9.30;;;17.60;1.00;;;;;;5077741;28;20226;-82
2022/09/30 11:19:37;;;;;;;13.82;8.95;;;18.00;1.00;;;;;;5077290;28;20190;-82
2022/09/30 11:22:22;;;;;;;11.70;9.38;;;18.10;1.00;;;;;;5077635;28;20194;-82
2022/09/30 11:24:52;;;;;;;11.00;8.70;;;17.60;1.00;;;;;;5076707;28;20658;-83
2022/09/30 11:27:23;;;;;;;11.43;9.45;;;17.40;1.00;;;;;;5077108;28;20228;-83
2022/09/30 11:30:01;;;;;;;13.20;9.30;;;17.50;1.00;;;;;;5076044;28;20202;-82
2022/09/30 11:32:43;;;;;;;12.63;10.00;;;17.40;1.00;;;;;;5075935;28;20228;-85
2022/09/30 11:35:33;;;;;;;14.52;10.77;;;17.20;1.00;;;;;;5082542;28;20192;-83
2022/09/30 11:38:16;;;;;;;13.93;10.93;;;16.70;1.00;;;;;;5083858;28;20206;-82
2022/09/30 11:40:51;;;;;;;16.63;11.98;;;16.50;99.90;;;;;;5077103;28;20179;-83
2022/09/30 11:43:28;;;;;;;15.50;11.32;;;16.60;99.90;;;;;;5077209;28;20190;-83
2022/09/30 11:46:15;;;;;;;16.30;11.10;;;16.70;1.00;;;;;;5077656;28;20225;-83
2022/09/30 11:48:59;;;;;;;15.25;11.75;;;16.50;1.00;;;;;;5077511;28;20186;-83
2022/09/30 11:51:31;;;;;;;14.32;12.40;;;16.60;1.00;;;;;;5077268;28;20201;-82
2022/09/30 11:54:07;;;;;;;17.80;12.55;;;17.10;1.00;;;;;;5077846;28;20229;-83
2022/09/30 11:56:43;;;;;;;16.17;11.82;;;17.40;1.00;;;;;;5077660;28;20218;-82
2022/09/30 11:59:18;;;;;;;15.65;11.55;;;17.50;99.90;;;;;;5076080;28;20179;-82
2022/09/30 12:01:49;;;;;;;16.42;12.00;;;17.60;99.90;;;;;;5076789;28;20224;-83
2022/09/30 12:04:28;;;;;;;13.27;10.45;;;17.80;99.90;;;;;;5073577;28;20222;-81
2022/09/30 12:07:00;;;;;;;12.40;8.35;;;18.50;99.90;;;;;;5073763;28;20230;-82
2022/09/30 12:09:30;;;;;;;8.88;7.80;;;18.10;99.90;;;;;;5071527;28;20216;-82
2022/09/30 12:12:01;;;;;;;12.15;9.75;;;18.40;99.90;;;;;;5068981;28;20202;-82
2022/09/30 12:14:36;;;;;;;11.70;7.90;;;18.40;99.90;;;;;;5077775;28;20255;-82
2022/09/30 12:17:07;;;;;;;9.88;7.85;;;18.50;99.90;;;;;;5074750;28;20244;-82
2022/09/30 12:19:41;;;;;;;9.52;6.30;;;18.90;99.90;;;;;;5076728;28;20624;-84
2022/09/30 12:22:16;;;;;;;9.90;6.28;;;19.20;99.90;;;;;;5089744;28;20208;-84
2022/09/30 12:24:44;;;;;;;9.55;7.05;;;18.70;99.90;;;;;;5087689;28;20288;-84
2022/09/30 12:27:17;;;;;;;10.50;6.85;;;18.70;99.90;;;;;;5073906;28;20214;-84
2022/09/30 12:33:09;;;;;;;6.78;5.55;;;18.80;6.90;;;;;;5070325;28;20751;-84
2022/09/30 12:36:09;;;;;;;8.27;4.60;;;18.50;1.00;;;;;;5070182;28;20288;-83
2022/09/30 12:39:18;;;;;;;12.15;6.88;;;18.60;1.00;;;;;;5072738;28;20586;-83
2022/09/30 12:41:58;;;;;;;4.72;3.50;;;18.60;1.00;;;;;;5072419;28;20655;-82
2022/09/30 12:44:55;;;;;;;4.72;3.63;;;19.00;1.00;;;;;;5072032;28;20749;-85
2022/09/30 12:47:33;;;;;;;6.10;4.05;;;18.70;1.00;;;;;;5071253;28;20221;-82
2022/09/30 12:50:05;;;;;;;7.13;4.32;;;18.40;1.00;;;;;;5071911;28;20235;-83
2022/09/30 12:52:37;;;;;;;5.22;3.67;;;18.50;1.00;;;;;;5071955;28;20217;-84
2022/09/30 12:55:09;;;;;;;4.93;3.35;;;18.90;1.00;;;;;;5071143;28;20608;-82
2022/09/30 12:57:41;;;;;;;3.60;3.22;;;19.10;1.00;;;;;;5071275;28;20234;-82
2022/09/30 13:00:16;;;;;;;3.38;3.08;;;18.90;1.00;;;;;;5070419;28;20221;-82
2022/09/30 13:02:46;;;;;;;3.92;3.50;;;18.90;1.00;;;;;;5070557;28;20205;-82
2022/09/30 13:05:50;;;;;;;4.10;3.40;;;18.90;1.00;;;;;;5069957;28;20252;-83
2022/09/30 13:08:43;;;;;;;4.97;3.28;;;19.00;1.00;;;;;;5070218;28;20229;-81
2022/09/30 13:11:33;;;;;;;6.18;3.55;;;18.50;1.00;;;;;;5071060;28;20203;-80
2022/09/30 13:14:12;;;;;;;3.22;2.92;;;18.70;1.00;;;;;;5070532;28;20213;-80
2022/09/30 13:16:59;;;;;;;3.85;2.90;;;18.60;1.00;;;;;;5071425;28;20232;-82
2022/09/30 13:19:35;;;;;;;2.78;2.22;;;18.80;1.00;;;;;;5069855;28;20651;-81
2022/09/30 13:22:50;;;;;;;4.72;2.30;;;18.80;1.00;;;;;;5070778;28;20221;-80